Time;durP1;ratioP1;P1;durP2;ratioP2;P2;SDS_P1;SDS_P2;PMS_P1;PMS_P2;Temp;Humidity;BMP_temperature;BMP_pressure;BME280_temperature;BME280_humidity;BME280_pressure;Samples;Min_cycle;Max_cycle;Signal;HPM_P1;HPM_P2
2021/11/01 00:00:45;;;;;;;9.40;8.43;;;12.40;99.90;;;;;;5069136;28;20459;-68
2021/11/01 00:03:13;;;;;;;11.10;8.30;;;12.30;99.90;;;;;;5069588;28;20451;-68
2021/11/01 00:05:40;;;;;;;10.80;8.90;;;12.30;99.90;;;;;;5069563;28;21024;-69
2021/11/01 00:08:07;;;;;;;9.27;8.30;;;12.30;99.90;;;;;;5069555;28;20491;-68
2021/11/01 00:10:35;;;;;;;10.93;9.10;;;12.30;99.90;;;;;;5071098;28;20534;-67
2021/11/01 00:13:02;;;;;;;11.47;10.13;;;12.20;99.90;;;;;;5071287;28;20807;-67
2021/11/01 00:15:30;;;;;;;11.77;9.80;;;12.20;99.90;;;;;;5071126;28;20478;-67
2021/11/01 00:17:57;;;;;;;14.20;10.40;;;12.20;99.90;;;;;;5070161;28;20554;-68
2021/11/01 00:20:24;;;;;;;9.60;8.63;;;12.20;99.90;;;;;;5071510;28;20478;-68
2021/11/01 00:22:52;;;;;;;10.70;9.03;;;12.30;99.90;;;;;;5070974;28;20474;-67
2021/11/01 00:25:20;;;;;;;9.73;8.73;;;12.30;99.90;;;;;;5071132;28;20450;-67
2021/11/01 00:27:47;;;;;;;12.17;9.10;;;12.40;99.90;;;;;;5070653;28;20470;-68
2021/11/01 00:30:15;;;;;;;9.90;8.90;;;12.40;99.90;;;;;;5070986;28;20918;-69
2021/11/01 00:32:43;;;;;;;9.97;8.50;;;12.40;99.90;;;;;;5071200;28;20443;-68
2021/11/01 00:35:10;;;;;;;9.40;8.40;;;12.40;99.90;;;;;;5071340;28;21004;-68
2021/11/01 00:37:37;;;;;;;10.23;8.90;;;12.50;99.90;;;;;;5070821;28;20529;-68
2021/11/01 00:40:05;;;;;;;8.87;7.60;;;12.60;99.90;;;;;;5071055;28;20490;-67
2021/11/01 00:42:32;;;;;;;7.90;6.97;;;12.70;99.90;;;;;;5070772;28;20577;-67
2021/11/01 00:44:59;;;;;;;9.07;6.87;;;12.70;99.90;;;;;;5070702;28;20533;-67
2021/11/01 00:47:26;;;;;;;7.13;6.43;;;12.90;99.90;;;;;;5070608;28;20447;-67
2021/11/01 00:49:55;;;;;;;7.03;5.47;;;13.00;99.90;;;;;;5070273;28;20454;-68
2021/11/01 00:52:26;;;;;;;6.40;5.40;;;13.00;99.90;;;;;;5070616;28;20825;-68
2021/11/01 00:54:58;;;;;;;6.63;5.90;;;13.10;99.90;;;;;;5071057;28;20486;-68
2021/11/01 00:57:25;;;;;;;6.97;5.60;;;13.10;99.90;;;;;;5070445;28;20840;-69
2021/11/01 00:59:52;;;;;;;8.17;5.20;;;13.20;99.90;;;;;;5070867;28;20537;-68
2021/11/01 01:02:19;;;;;;;7.50;5.63;;;13.30;99.90;;;;;;5070646;28;20479;-68
2021/11/01 01:04:46;;;;;;;5.53;4.83;;;13.30;99.90;;;;;;5070567;28;20538;-69
2021/11/01 01:07:14;;;;;;;5.30;4.77;;;13.30;99.90;;;;;;5070148;28;20500;-67
2021/11/01 01:09:41;;;;;;;7.20;5.67;;;13.40;99.90;;;;;;5070524;28;20990;-68
2021/11/01 01:12:09;;;;;;;7.90;6.60;;;13.40;99.90;;;;;;5070454;28;20526;-68
2021/11/01 01:14:41;;;;;;;16.00;12.23;;;13.50;99.90;;;;;;5070808;28;20470;-68
2021/11/01 01:17:08;;;;;;;12.30;10.83;;;13.50;99.90;;;;;;5070500;28;20496;-68
2021/11/01 01:19:44;;;;;;;8.63;7.07;;;13.40;99.90;;;;;;5070223;28;21081;-67
2021/11/01 01:22:14;;;;;;;6.30;5.70;;;13.30;99.90;;;;;;5070155;28;20502;-69
2021/11/01 01:24:42;;;;;;;8.60;6.13;;;13.40;99.90;;;;;;5070110;28;20443;-68
2021/11/01 01:27:09;;;;;;;5.30;4.80;;;13.40;99.90;;;;;;5070140;28;20547;-69
2021/11/01 01:29:36;;;;;;;6.83;5.63;;;13.40;99.90;;;;;;5070239;28;20501;-68
2021/11/01 01:32:05;;;;;;;7.47;5.50;;;13.50;99.90;;;;;;5070197;28;20439;-68
2021/11/01 01:34:32;;;;;;;5.83;4.20;;;13.50;99.90;;;;;;5070178;28;20896;-68
2021/11/01 01:36:59;;;;;;;5.27;4.50;;;13.70;99.90;;;;;;5069965;28;20534;-68
2021/11/01 01:39:26;;;;;;;4.07;2.90;;;13.80;99.90;;;;;;5062249;23;20520;-65
2021/11/01 01:41:54;;;;;;;3.43;2.47;;;14.10;99.90;;;;;;5029810;28;20826;-64
2021/11/01 01:44:21;;;;;;;5.00;2.00;;;14.40;99.90;;;;;;5029882;28;20440;-64
2021/11/01 01:46:48;;;;;;;2.40;1.50;;;14.70;99.90;;;;;;5029305;28;20488;-65
2021/11/01 01:49:15;;;;;;;5.37;2.00;;;14.80;99.90;;;;;;5030212;28;20441;-64
2021/11/01 01:51:42;;;;;;;3.23;1.90;;;14.70;99.90;;;;;;5030099;28;20448;-64
2021/11/01 01:54:08;;;;;;;4.10;1.73;;;14.70;99.90;;;;;;5030079;28;21053;-65
2021/11/01 01:56:35;;;;;;;4.93;2.43;;;14.60;99.90;;;;;;5029670;28;20850;-64
2021/11/01 01:59:10;;;;;;;3.90;1.30;;;14.50;99.90;;;;;;5029864;28;20463;-63
2021/11/01 02:01:37;;;;;;;2.50;1.07;;;14.40;99.90;;;;;;5030456;28;20496;-64
2021/11/01 02:04:05;;;;;;;3.90;1.30;;;14.20;99.90;;;;;;5034032;28;20448;-63
2021/11/01 02:06:42;;;;;;;5.10;1.10;;;14.10;99.90;;;;;;5033188;28;20492;-64
2021/11/01 02:09:14;;;;;;;3.53;1.20;;;14.00;99.90;;;;;;5033665;28;20530;-65
2021/11/01 02:11:48;;;;;;;2.43;0.93;;;13.90;99.90;;;;;;5033447;28;20442;-64
2021/11/01 02:14:19;;;;;;;2.77;1.00;;;13.90;99.90;;;;;;5033779;28;20445;-63
2021/11/01 02:16:49;;;;;;;2.40;1.10;;;13.80;99.90;;;;;;5033343;28;20555;-63
2021/11/01 02:19:17;;;;;;;3.77;1.40;;;13.70;99.90;;;;;;5033554;28;20445;-63
2021/11/01 02:21:50;;;;;;;3.87;1.10;;;13.70;99.90;;;;;;5033439;28;20495;-64
2021/11/01 02:24:23;;;;;;;3.50;1.53;;;13.60;99.90;;;;;;5033235;28;21225;-64
2021/11/01 02:26:52;;;;;;;5.53;1.20;;;13.60;99.90;;;;;;5033115;28;20457;-62
2021/11/01 02:29:22;;;;;;;3.20;0.90;;;13.50;99.90;;;;;;5033241;28;20456;-65
2021/11/01 02:31:50;;;;;;;4.50;1.40;;;13.50;99.90;;;;;;5033439;28;20540;-64
2021/11/01 02:34:17;;;;;;;2.63;1.00;;;13.40;99.90;;;;;;5033001;28;20524;-63
2021/11/01 02:36:46;;;;;;;2.43;0.80;;;13.40;99.90;;;;;;5032810;28;20465;-64
2021/11/01 02:39:12;;;;;;;4.53;1.53;;;13.30;99.90;;;;;;5032808;28;20452;-64
2021/11/01 02:41:41;;;;;;;3.23;1.00;;;13.20;99.90;;;;;;5033041;28;20459;-63
2021/11/01 02:44:10;;;;;;;2.60;0.87;;;13.10;99.90;;;;;;5033036;28;20479;-64
2021/11/01 02:46:39;;;;;;;2.70;0.90;;;12.90;99.90;;;;;;5032843;28;20471;-64
2021/11/01 02:49:06;;;;;;;2.53;1.10;;;12.80;99.90;;;;;;5032794;28;20455;-64
2021/11/01 02:51:34;;;;;;;2.50;0.90;;;12.70;99.90;;;;;;5032881;28;20449;-64
2021/11/01 02:54:02;;;;;;;2.60;1.00;;;12.50;99.90;;;;;;5032964;28;20539;-64
2021/11/01 02:56:29;;;;;;;5.33;1.30;;;12.40;99.90;;;;;;5032417;28;20543;-67
2021/11/01 02:58:56;;;;;;;5.30;1.00;;;12.30;99.90;;;;;;5032781;28;20452;-64
2021/11/01 03:01:25;;;;;;;4.13;1.33;;;12.20;99.90;;;;;;5032682;28;20557;-64
2021/11/01 03:03:52;;;;;;;8.07;1.10;;;12.10;99.90;;;;;;5032711;28;20480;-64
2021/11/01 03:06:24;;;;;;;2.93;1.00;;;12.00;99.90;;;;;;5032584;28;20472;-65
2021/11/01 03:08:53;;;;;;;4.30;1.67;;;11.80;99.90;;;;;;5032824;28;20445;-63
2021/11/01 03:11:20;;;;;;;2.37;0.90;;;11.70;99.90;;;;;;5032027;28;20545;-63
2021/11/01 03:13:47;;;;;;;4.50;1.10;;;11.70;99.90;;;;;;5032538;28;20640;-63
2021/11/01 03:16:15;;;;;;;5.20;1.13;;;11.70;99.90;;;;;;5032304;28;20579;-63
2021/11/01 03:18:53;;;;;;;2.70;1.00;;;11.60;99.90;;;;;;5032443;28;20535;-63
2021/11/01 03:21:21;;;;;;;2.80;1.23;;;11.50;99.90;;;;;;5032300;28;20481;-64
2021/11/01 03:23:50;;;;;;;6.77;1.17;;;11.50;99.90;;;;;;5032607;28;20869;-63
2021/11/01 03:26:21;;;;;;;4.77;1.40;;;11.40;99.90;;;;;;5031725;28;20846;-66
2021/11/01 03:28:51;;;;;;;5.63;1.23;;;11.40;99.90;;;;;;5032250;28;20448;-64
2021/11/01 03:31:20;;;;;;;3.50;1.10;;;11.30;99.90;;;;;;5032302;28;20448;-63
2021/11/01 03:33:51;;;;;;;4.50;1.20;;;11.30;99.90;;;;;;5032255;28;20527;-64
2021/11/01 03:36:18;;;;;;;3.83;1.00;;;11.30;99.90;;;;;;5031951;28;20527;-62
2021/11/01 03:38:45;;;;;;;3.30;1.23;;;11.20;99.90;;;;;;5032064;28;20467;-62
2021/11/01 03:41:13;;;;;;;5.23;1.30;;;11.20;99.90;;;;;;5032166;28;20531;-63
2021/11/01 03:43:47;;;;;;;5.10;1.30;;;11.10;99.90;;;;;;5032234;28;20572;-64
2021/11/01 03:46:14;;;;;;;5.40;1.10;;;11.10;99.90;;;;;;5031629;28;20503;-63
2021/11/01 03:48:43;;;;;;;3.90;1.13;;;11.00;99.90;;;;;;5032040;28;20501;-63
2021/11/01 03:51:16;;;;;;;2.73;1.20;;;10.90;99.90;;;;;;5031904;28;20938;-62
2021/11/01 03:53:43;;;;;;;4.07;1.30;;;10.80;99.90;;;;;;5031780;28;20449;-64
2021/11/01 03:56:10;;;;;;;4.43;1.30;;;10.80;99.90;;;;;;5031561;28;20475;-63
2021/11/01 03:58:38;;;;;;;5.10;2.30;;;10.70;99.90;;;;;;5031506;28;20453;-63
2021/11/01 04:01:05;;;;;;;3.93;1.10;;;10.70;99.90;;;;;;5031735;28;20452;-63
2021/11/01 04:03:32;;;;;;;4.60;1.33;;;10.70;99.90;;;;;;5031320;28;20485;-64
2021/11/01 04:06:02;;;;;;;3.70;1.37;;;10.70;99.90;;;;;;5031517;28;20473;-63
2021/11/01 04:08:31;;;;;;;7.37;1.90;;;10.70;99.90;;;;;;5031344;28;20453;-64
2021/11/01 04:10:58;;;;;;;3.37;1.20;;;10.80;99.90;;;;;;5031828;28;20455;-64
2021/11/01 04:13:25;;;;;;;4.57;1.30;;;10.70;99.90;;;;;;5031607;28;20437;-64
2021/11/01 04:15:57;;;;;;;3.60;1.30;;;10.70;99.90;;;;;;5031128;28;20501;-64
2021/11/01 04:18:35;;;;;;;3.93;1.30;;;10.70;99.90;;;;;;5031075;28;21033;-65
2021/11/01 04:21:06;;;;;;;3.70;1.30;;;10.70;99.90;;;;;;5031490;28;20455;-63
2021/11/01 04:23:35;;;;;;;6.40;1.30;;;10.70;99.90;;;;;;5030572;28;20562;-64
2021/11/01 04:26:03;;;;;;;4.60;1.30;;;10.70;99.90;;;;;;5031166;28;20471;-64
2021/11/01 04:28:31;;;;;;;4.00;2.10;;;10.70;99.90;;;;;;5031368;28;20489;-64
2021/11/01 04:31:04;;;;;;;4.90;1.40;;;10.70;99.90;;;;;;5031427;28;20584;-63
2021/11/01 04:33:32;;;;;;;3.50;1.20;;;10.80;99.90;;;;;;5031575;28;20472;-63
2021/11/01 04:35:58;;;;;;;4.37;1.93;;;10.70;99.90;;;;;;5031139;28;20475;-65
2021/11/01 04:38:38;;;;;;;6.70;1.63;;;10.80;99.90;;;;;;5030901;28;20953;-63
2021/11/01 04:41:17;;;;;;;5.43;1.37;;;10.80;99.90;;;;;;5031139;28;20452;-64
2021/11/01 04:55:01;;;;;;;4.57;1.67;;;10.60;99.90;;;;;;5017268;28;20451;-63
2021/11/01 04:57:30;;;;;;;3.53;1.50;;;10.70;99.90;;;;;;5030619;28;20472;-64
2021/11/01 04:59:57;;;;;;;2.63;1.07;;;10.60;99.90;;;;;;5030580;28;20445;-64
2021/11/01 05:02:25;;;;;;;5.80;1.43;;;10.60;99.90;;;;;;5030584;28;20568;-64
2021/11/01 05:04:53;;;;;;;5.00;1.43;;;10.60;99.90;;;;;;5030387;28;20575;-64
2021/11/01 05:07:20;;;;;;;4.47;1.83;;;10.60;99.90;;;;;;5030082;28;20480;-64
2021/11/01 05:09:53;;;;;;;3.07;1.20;;;10.60;99.90;;;;;;5030630;28;21031;-65
2021/11/01 05:12:27;;;;;;;5.00;1.50;;;10.60;99.90;;;;;;5030477;28;20977;-65
2021/11/01 05:15:05;;;;;;;4.80;1.70;;;10.60;99.90;;;;;;5030408;28;20442;-64
2021/11/01 05:17:40;;;;;;;6.97;1.50;;;10.60;99.90;;;;;;5030440;28;21192;-64
2021/11/01 05:20:12;;;;;;;8.83;1.93;;;10.70;99.90;;;;;;5030572;28;20540;-64
2021/11/01 05:22:46;;;;;;;4.33;1.77;;;10.60;99.90;;;;;;5030252;28;20524;-63
2021/11/01 05:25:16;;;;;;;6.10;2.47;;;10.60;99.90;;;;;;5030204;28;20515;-65
2021/11/01 05:27:56;;;;;;;4.47;1.63;;;10.60;99.90;;;;;;5029757;28;20460;-65
2021/11/01 05:30:29;;;;;;;6.70;3.10;;;10.60;99.90;;;;;;5030129;28;20502;-63
2021/11/01 05:33:03;;;;;;;6.17;2.17;;;10.60;99.90;;;;;;5030101;28;20477;-65
2021/11/01 05:35:29;;;;;;;5.40;2.43;;;10.70;99.90;;;;;;5029768;28;20994;-64
2021/11/01 05:37:56;;;;;;;7.77;3.70;;;10.60;99.90;;;;;;5029398;28;21045;-64
2021/11/01 05:40:23;;;;;;;7.40;3.33;;;10.70;99.90;;;;;;5029597;28;20456;-65
2021/11/01 05:42:50;;;;;;;6.77;3.00;;;10.60;99.90;;;;;;5029741;28;20507;-64
2021/11/01 05:45:17;;;;;;;7.53;3.80;;;10.60;99.90;;;;;;5029671;28;20479;-64
2021/11/01 05:47:51;;;;;;;8.53;3.53;;;10.60;99.90;;;;;;5029345;28;20449;-64
2021/11/01 05:50:18;;;;;;;9.77;3.70;;;10.60;99.90;;;;;;5029832;28;20539;-63
2021/11/01 05:52:45;;;;;;;5.87;2.70;;;10.60;99.90;;;;;;5029512;28;20451;-64
2021/11/01 05:55:21;;;;;;;8.60;3.30;;;10.60;99.90;;;;;;5029789;28;20465;-64
2021/11/01 05:58:02;;;;;;;5.00;2.40;;;10.70;99.90;;;;;;5029606;28;20552;-63
2021/11/01 06:03:16;;;;;;;7.03;2.40;;;10.60;99.90;;;;;;5028979;28;20556;-64
2021/11/01 06:06:14;;;;;;;8.93;2.90;;;10.60;99.90;;;;;;5029726;28;20827;-63
2021/11/01 06:08:56;;;;;;;9.50;3.20;;;10.60;99.90;;;;;;5029526;28;20445;-65
2021/11/01 06:14:07;;;;;;;6.63;3.10;;;10.50;99.90;;;;;;5029601;28;20508;-65
2021/11/01 06:16:34;;;;;;;6.47;3.00;;;10.50;99.90;;;;;;5029358;28;20585;-64
2021/11/01 06:19:02;;;;;;;6.53;2.63;;;10.50;99.90;;;;;;5029633;28;20472;-65
2021/11/01 06:21:29;;;;;;;4.23;2.93;;;10.50;99.90;;;;;;5029400;28;21034;-65
2021/11/01 06:24:00;;;;;;;9.00;3.67;;;10.50;99.90;;;;;;5029051;28;20484;-64
2021/11/01 06:26:28;;;;;;;5.30;2.40;;;10.50;99.90;;;;;;5028790;28;20975;-64
2021/11/01 06:28:58;;;;;;;6.97;2.60;;;10.50;99.90;;;;;;5029194;28;20445;-64
2021/11/01 06:31:29;;;;;;;5.03;2.63;;;10.50;99.90;;;;;;5029414;28;20445;-64
2021/11/01 06:34:22;;;;;;;5.97;3.23;;;10.50;99.90;;;;;;5029283;28;20456;-64
2021/11/01 06:39:54;;;;;;;5.57;2.93;;;10.50;99.90;;;;;;5029056;28;20961;-63
2021/11/01 06:42:27;;;;;;;9.87;3.53;;;10.60;99.90;;;;;;5028966;28;20456;-64
2021/11/01 06:45:10;;;;;;;5.17;3.10;;;10.60;99.90;;;;;;5029225;28;20472;-65
2021/11/01 06:50:34;;;;;;;6.63;3.07;;;10.70;99.90;;;;;;5032688;28;20420;-64
2021/11/01 06:53:30;;;;;;;4.50;2.80;;;10.70;99.90;;;;;;5032354;28;20445;-65
2021/11/01 07:15:31;;;;;;;5.73;2.60;;;10.70;99.90;;;;;;5032351;28;20440;-65
2021/11/01 07:18:02;;;;;;;5.43;2.63;;;10.70;99.90;;;;;;5031804;28;20451;-65
2021/11/01 07:20:39;;;;;;;9.17;2.63;;;10.70;99.90;;;;;;5032396;28;20441;-64
2021/11/01 07:29:52;;;;;;;5.53;2.03;;;10.70;99.90;;;;;;5021013;28;20453;-65
2021/11/01 08:22:02;;;;;;;2.47;1.00;;;10.30;99.90;;;;;;4969222;28;20431;-62
2021/11/01 08:24:55;;;;;;;2.30;0.90;;;10.30;99.90;;;;;;5025213;28;20512;-65
2021/11/01 08:27:44;;;;;;;3.80;1.20;;;10.30;99.90;;;;;;5030441;28;20449;-64
2021/11/01 08:36:05;;;;;;;5.37;1.73;;;10.40;99.90;;;;;;5026952;28;20583;-64
2021/11/01 08:39:06;;;;;;;4.60;1.93;;;10.40;99.90;;;;;;5027464;28;20487;-65
2021/11/01 08:50:27;;;;;;;3.90;1.53;;;10.60;99.90;;;;;;4996324;28;21029;-63
2021/11/01 09:04:01;;;;;;;3.10;1.67;;;10.80;99.90;;;;;;5029947;28;20518;-64
2021/11/01 09:20:10;;;;;;;3.23;1.20;;;11.10;99.90;;;;;;5029219;28;20429;-65
2021/11/01 09:25:49;;;;;;;2.60;1.27;;;11.00;99.90;;;;;;4983192;28;20972;-68
2021/11/01 09:28:19;;;;;;;2.90;1.30;;;10.90;99.90;;;;;;5023340;28;20838;-65
2021/11/01 09:41:50;;;;;;;3.83;1.30;;;10.80;99.90;;;;;;5009986;28;20421;-64
2021/11/01 09:44:23;;;;;;;2.27;1.27;;;10.80;99.90;;;;;;5010266;28;20484;-66
2021/11/01 09:46:50;;;;;;;2.93;1.13;;;10.90;99.90;;;;;;5009558;28;20584;-64
2021/11/01 09:49:17;;;;;;;4.83;1.30;;;10.90;99.90;;;;;;5010166;28;20889;-67
2021/11/01 09:51:47;;;;;;;4.17;1.50;;;11.00;99.90;;;;;;5009946;28;20454;-64
2021/11/01 09:54:22;;;;;;;3.50;1.10;;;11.10;99.90;;;;;;5009847;28;20496;-63
2021/11/01 09:57:01;;;;;;;2.73;1.20;;;11.10;99.90;;;;;;5009482;28;20552;-64
2021/11/01 09:59:31;;;;;;;5.03;1.17;;;11.10;99.90;;;;;;5009841;28;20882;-62
2021/11/01 10:02:00;;;;;;;2.00;0.90;;;11.20;99.90;;;;;;5009645;28;20450;-64
2021/11/01 10:04:29;;;;;;;3.83;1.53;;;11.10;99.90;;;;;;5009668;28;20481;-65
2021/11/01 10:07:18;;;;;;;3.70;1.27;;;11.20;99.90;;;;;;5009220;28;20499;-72
2021/11/01 10:09:47;;;;;;;3.10;1.60;;;11.20;99.90;;;;;;5009627;28;20488;-63
2021/11/01 10:12:24;;;;;;;3.80;1.90;;;11.20;99.90;;;;;;5009537;28;20450;-64
2021/11/01 10:14:52;;;;;;;2.53;1.40;;;11.20;99.90;;;;;;5009329;28;20445;-62
2021/11/01 10:17:35;;;;;;;3.37;1.60;;;11.20;99.90;;;;;;5018372;28;20959;-65
2021/11/01 10:20:08;;;;;;;2.40;1.53;;;11.20;99.90;;;;;;5026827;28;20545;-67
2021/11/01 10:22:36;;;;;;;4.17;1.53;;;11.10;99.90;;;;;;5030710;28;20837;-65
2021/11/01 10:25:16;;;;;;;3.10;1.40;;;11.20;99.90;;;;;;5027355;28;21018;-64
2021/11/01 10:27:46;;;;;;;2.60;1.30;;;11.20;99.90;;;;;;5020413;28;20576;-65
2021/11/01 10:30:15;;;;;;;2.57;1.30;;;11.20;99.90;;;;;;5021648;28;20456;-68
2021/11/01 10:32:45;;;;;;;3.27;1.40;;;11.30;99.90;;;;;;5024576;28;20446;-65
2021/11/01 10:35:17;;;;;;;2.40;1.50;;;11.40;99.90;;;;;;5031903;28;20465;-64
2021/11/01 10:38:13;;;;;;;3.10;1.17;;;11.40;99.90;;;;;;5028378;28;20957;-65
2021/11/01 10:40:48;;;;;;;3.33;1.10;;;11.50;99.90;;;;;;5024562;28;20445;-68
2021/11/01 10:57:25;;;;;;;2.60;1.20;;;11.40;99.90;;;;;;5029534;28;20448;-65
2021/11/01 11:11:06;;;;;;;2.40;1.47;;;11.40;99.90;;;;;;5029661;28;21036;-64
2021/11/01 11:13:40;;;;;;;2.30;1.30;;;11.40;99.90;;;;;;5026250;28;20793;-65
2021/11/01 11:16:09;;;;;;;2.67;1.40;;;11.40;99.90;;;;;;5030939;28;20601;-66
2021/11/01 11:18:53;;;;;;;2.30;1.20;;;11.40;99.90;;;;;;5029125;28;20452;-65
2021/11/01 11:21:39;;;;;;;2.77;1.30;;;11.50;99.90;;;;;;5024638;28;20447;-65
2021/11/01 11:27:11;;;;;;;2.53;1.23;;;11.50;99.90;;;;;;5031190;28;20456;-65
2021/11/01 11:29:56;;;;;;;7.50;1.50;;;11.50;99.90;;;;;;5031379;28;20463;-65
2021/11/01 11:32:40;;;;;;;2.33;1.40;;;11.50;99.90;;;;;;5024234;28;20448;-65
2021/11/01 11:38:17;;;;;;;2.47;1.10;;;11.80;99.90;;;;;;4988650;28;20429;-64
2021/11/01 11:49:06;;;;;;;4.27;1.50;;;12.30;99.90;;;;;;5028748;28;20556;-64
2021/11/01 11:51:34;;;;;;;2.30;1.20;;;12.40;99.90;;;;;;5031112;28;20455;-65
2021/11/01 11:54:03;;;;;;;3.23;1.90;;;12.50;99.90;;;;;;5031072;28;20437;-65
2021/11/01 11:56:32;;;;;;;2.57;1.50;;;12.40;99.90;;;;;;5030390;28;20485;-65
2021/11/01 11:59:01;;;;;;;2.77;1.70;;;12.40;99.90;;;;;;5030326;28;20883;-64
2021/11/01 12:01:32;;;;;;;4.17;1.70;;;12.30;99.90;;;;;;5030758;28;20448;-65
2021/11/01 12:04:00;;;;;;;2.20;1.23;;;12.20;99.90;;;;;;5030947;28;20994;-65
2021/11/01 12:06:49;;;;;;;2.83;2.10;;;12.10;99.90;;;;;;5030474;28;20463;-65
2021/11/01 12:09:21;;;;;;;3.20;2.37;;;12.00;99.90;;;;;;5016762;28;20447;-64
2021/11/01 12:17:29;;;;;;;3.50;1.63;;;11.90;99.90;;;;;;5019749;28;20460;-66
2021/11/01 12:20:00;;;;;;;6.40;1.97;;;11.90;99.90;;;;;;5030259;28;20909;-65
2021/11/01 12:22:32;;;;;;;4.10;2.63;;;12.00;99.90;;;;;;5030582;28;20855;-65
2021/11/01 12:25:02;;;;;;;4.70;2.63;;;12.00;99.90;;;;;;5028176;28;21010;-65
2021/11/01 12:27:33;;;;;;;3.87;2.30;;;12.00;99.90;;;;;;5029856;28;20481;-65
2021/11/01 12:30:02;;;;;;;4.37;1.83;;;12.00;99.90;;;;;;5030690;28;20888;-64
2021/11/01 12:32:31;;;;;;;3.57;1.73;;;12.00;99.90;;;;;;5030338;28;20480;-65
2021/11/01 12:35:03;;;;;;;3.27;2.20;;;12.00;99.90;;;;;;5030588;28;21255;-65
2021/11/01 12:37:32;;;;;;;3.23;2.17;;;12.00;99.90;;;;;;5029014;28;20449;-64
2021/11/01 12:40:09;;;;;;;4.73;3.07;;;12.00;99.90;;;;;;5026097;28;20461;-64
2021/11/01 12:42:46;;;;;;;6.30;4.90;;;12.00;99.90;;;;;;5022334;28;20462;-68
2021/11/01 12:59:12;;;;;;;10.90;7.60;;;12.00;99.90;;;;;;5030287;28;20427;-64
2021/11/01 13:01:47;;;;;;;9.03;5.40;;;12.00;99.90;;;;;;5030413;28;20503;-64
2021/11/01 13:04:32;;;;;;;6.97;5.00;;;12.10;99.90;;;;;;5030421;28;20483;-63
2021/11/01 13:07:03;;;;;;;5.10;3.73;;;12.10;99.90;;;;;;5030319;28;20468;-63
2021/11/01 13:09:34;;;;;;;4.63;3.23;;;12.10;99.90;;;;;;5030350;28;20538;-64
2021/11/01 13:12:21;;;;;;;5.87;2.70;;;12.20;99.90;;;;;;5030166;28;20444;-64
2021/11/01 13:15:02;;;;;;;4.60;2.80;;;12.10;99.90;;;;;;5028596;28;20518;-64
2021/11/01 13:20:22;;;;;;;4.37;2.40;;;12.20;99.90;;;;;;5029337;28;21022;-62
2021/11/01 13:22:52;;;;;;;3.97;2.37;;;12.10;99.90;;;;;;5022138;28;20457;-64
2021/11/01 13:25:24;;;;;;;3.17;2.17;;;12.00;99.90;;;;;;5029722;28;20496;-65
2021/11/01 13:28:01;;;;;;;2.67;1.73;;;11.90;99.90;;;;;;5027169;28;20560;-65
2021/11/01 13:36:27;;;;;;;4.77;2.47;;;12.00;99.90;;;;;;5027661;28;20487;-65
2021/11/01 13:38:57;;;;;;;3.33;1.80;;;12.00;99.90;;;;;;5019204;28;20500;-65
2021/11/01 13:41:28;;;;;;;4.33;2.37;;;12.10;99.90;;;;;;5018628;28;20456;-65
2021/11/01 13:44:06;;;;;;;3.53;2.43;;;12.10;99.90;;;;;;5023619;28;20480;-65
2021/11/01 13:46:33;;;;;;;4.60;2.57;;;12.10;99.90;;;;;;5024845;28;20547;-65
2021/11/01 13:49:00;;;;;;;4.27;2.43;;;12.10;99.90;;;;;;5022942;28;20869;-65
2021/11/01 13:51:32;;;;;;;6.40;2.60;;;12.10;99.90;;;;;;5020198;28;20520;-65
2021/11/01 13:54:07;;;;;;;3.70;2.40;;;12.00;99.90;;;;;;5022036;28;20588;-65
2021/11/01 13:56:40;;;;;;;3.63;2.33;;;12.00;99.90;;;;;;5025493;28;20464;-65
2021/11/01 13:59:24;;;;;;;3.60;2.43;;;11.90;99.90;;;;;;5030873;28;21138;-64
2021/11/01 14:02:08;;;;;;;3.17;2.43;;;11.80;99.90;;;;;;5023953;28;20453;-64
2021/11/01 14:12:55;;;;;;;3.87;2.37;;;11.80;99.90;;;;;;5028936;28;20455;-61
2021/11/01 14:15:55;;;;;;;5.07;3.53;;;11.90;99.90;;;;;;5025037;28;20469;-64
2021/11/01 14:18:47;;;;;;;3.50;2.50;;;11.90;99.90;;;;;;5029273;28;20525;-64
2021/11/01 14:29:42;;;;;;;3.30;2.50;;;12.00;99.90;;;;;;5031857;28;20439;-64
2021/11/01 15:08:42;;;;;;;4.07;2.00;;;11.90;99.90;;;;;;5010702;28;20425;-63
2021/11/01 15:14:10;;;;;;;5.70;2.53;;;11.90;99.90;;;;;;5029431;28;20445;-65
2021/11/01 15:19:38;;;;;;;4.93;2.43;;;12.10;99.90;;;;;;5029326;28;20436;-65
2021/11/01 15:22:27;;;;;;;3.77;2.30;;;12.20;99.90;;;;;;5032629;28;20531;-64
2021/11/01 15:28:08;;;;;;;4.90;2.87;;;12.30;99.90;;;;;;5141443;27;20583;-67
2021/11/01 16:17:45;;;;;;;3.80;2.97;;;11.30;99.90;;;;;;5062326;28;20427;-64
2021/11/01 16:20:12;;;;;;;3.60;2.57;;;11.20;99.90;;;;;;5061558;28;20892;-63
2021/11/01 16:22:40;;;;;;;4.73;2.80;;;11.20;99.90;;;;;;5063465;28;20447;-63
2021/11/01 16:25:08;;;;;;;3.30;2.50;;;11.10;99.90;;;;;;5063700;28;20989;-63
2021/11/01 16:27:42;;;;;;;4.43;3.00;;;11.10;99.90;;;;;;5063556;28;20881;-63
2021/11/01 16:30:13;;;;;;;4.37;2.90;;;11.10;99.90;;;;;;5060351;28;20465;-63
2021/11/01 16:32:44;;;;;;;3.97;2.77;;;11.10;99.90;;;;;;5063802;28;20447;-63
2021/11/01 16:35:12;;;;;;;4.90;3.00;;;11.10;99.90;;;;;;5063861;28;20451;-64
2021/11/01 16:37:44;;;;;;;3.20;2.50;;;11.10;99.90;;;;;;5058493;28;20440;-63
2021/11/01 16:40:13;;;;;;;3.17;2.50;;;11.10;99.90;;;;;;5050245;28;20459;-64
2021/11/01 16:42:43;;;;;;;6.00;3.03;;;11.00;99.90;;;;;;5050087;28;20451;-63
2021/11/01 16:45:15;;;;;;;6.00;2.90;;;11.00;99.90;;;;;;5050048;28;20460;-63
2021/11/01 16:47:45;;;;;;;5.50;3.00;;;11.00;99.90;;;;;;5050122;28;20484;-64
2021/11/01 16:50:13;;;;;;;8.10;3.93;;;11.00;99.90;;;;;;5050473;28;20471;-63
2021/11/01 16:52:43;;;;;;;4.83;3.17;;;10.90;99.90;;;;;;5047640;28;20452;-61
2021/11/01 16:55:14;;;;;;;4.40;3.33;;;10.90;99.90;;;;;;5045572;28;20889;-63
2021/11/01 16:57:45;;;;;;;7.77;5.60;;;10.90;99.90;;;;;;5029287;28;21113;-65
2021/11/01 17:00:21;;;;;;;8.10;4.80;;;10.90;99.90;;;;;;5042783;28;20938;-64
2021/11/01 17:05:48;;;;;;;8.83;4.60;;;10.80;99.90;;;;;;5046019;28;20495;-63
2021/11/01 17:22:20;;;;;;;8.67;5.50;;;10.70;99.90;;;;;;5050017;28;20430;-62
2021/11/01 17:24:51;;;;;;;7.20;5.00;;;10.70;99.90;;;;;;5041912;28;20841;-64
2021/11/01 17:27:39;;;;;;;6.67;5.03;;;10.70;99.90;;;;;;5049486;28;20519;-63
2021/11/01 17:36:00;;;;;;;7.43;6.10;;;10.50;99.90;;;;;;5047966;28;20607;-62
2021/11/01 17:39:00;;;;;;;9.30;6.10;;;10.40;99.90;;;;;;5049322;28;20448;-63
2021/11/01 18:40:08;;;;;;;6.60;5.80;;;9.20;99.90;;;;;;4990902;28;20521;-65
2021/11/01 18:42:58;;;;;;;8.67;6.40;;;9.20;99.90;;;;;;5046669;28;21299;-62
2021/11/01 18:45:44;;;;;;;10.23;6.20;;;9.20;99.90;;;;;;5043568;28;20943;-64
2021/11/01 18:51:04;;;;;;;7.77;6.60;;;9.40;99.90;;;;;;5042845;28;21044;-65
2021/11/01 18:53:35;;;;;;;8.83;7.37;;;9.40;99.90;;;;;;5047535;28;20474;-65
2021/11/01 18:56:05;;;;;;;9.33;7.03;;;9.40;99.90;;;;;;5048051;28;20962;-63
2021/11/01 18:58:35;;;;;;;8.43;6.60;;;9.40;99.90;;;;;;5047433;28;20833;-65
2021/11/01 19:01:05;;;;;;;10.80;6.50;;;9.40;99.90;;;;;;5048065;28;20542;-64
2021/11/01 19:03:36;;;;;;;7.30;6.60;;;9.50;99.90;;;;;;5048120;28;20848;-65
2021/11/01 19:06:14;;;;;;;7.30;6.17;;;9.40;99.90;;;;;;5048028;28;20969;-64
2021/11/01 19:08:50;;;;;;;8.60;6.37;;;9.40;99.90;;;;;;5047339;28;20550;-64
2021/11/01 20:04:32;;;;;;;6.37;5.43;;;8.20;99.90;;;;;;5008336;28;20437;-63
2021/11/01 21:25:15;;;;;;;5.40;3.40;;;6.90;99.90;;;;;;5037517;28;20455;-63
2021/11/01 21:27:44;;;;;;;6.33;4.93;;;7.00;99.90;;;;;;5045786;28;20475;-63
2021/11/01 21:30:12;;;;;;;5.00;3.50;;;7.00;99.90;;;;;;5048469;28;20873;-64
2021/11/01 21:32:40;;;;;;;5.87;3.90;;;7.00;99.90;;;;;;5043763;28;20595;-64
2021/11/01 21:35:09;;;;;;;4.23;3.50;;;7.00;99.90;;;;;;5043122;28;21175;-64
2021/11/01 21:37:37;;;;;;;10.30;5.20;;;7.00;99.90;;;;;;5042926;28;20940;-63
2021/11/01 21:40:06;;;;;;;6.17;4.00;;;7.00;99.90;;;;;;5040665;28;20482;-64
2021/11/01 21:42:33;;;;;;;5.20;3.97;;;6.90;99.90;;;;;;5047239;28;21182;-64
2021/11/01 21:45:02;;;;;;;5.70;4.47;;;6.90;99.90;;;;;;5046560;28;20531;-64
2021/11/01 21:47:29;;;;;;;4.80;3.50;;;6.80;99.90;;;;;;5045256;28;20575;-63
2021/11/01 21:49:56;;;;;;;4.90;3.83;;;6.90;99.90;;;;;;5047736;28;20969;-63
2021/11/01 21:52:23;;;;;;;6.20;4.60;;;6.80;99.90;;;;;;5043652;28;20440;-63
2021/11/01 21:54:52;;;;;;;4.73;3.77;;;6.90;99.90;;;;;;5047602;28;20877;-64
2021/11/01 21:57:23;;;;;;;5.33;3.57;;;6.90;99.90;;;;;;5045424;28;20474;-63
2021/11/01 22:19:16;;;;;;;5.50;3.67;;;6.90;99.90;;;;;;5048017;28;20502;-65
2021/11/01 22:21:47;;;;;;;5.23;3.80;;;6.90;99.90;;;;;;5046749;28;20890;-64
2021/11/01 22:24:18;;;;;;;6.53;3.47;;;7.00;99.90;;;;;;5048083;28;20452;-65
2021/11/01 22:26:58;;;;;;;5.10;3.33;;;7.00;99.90;;;;;;5046513;28;20491;-65
2021/11/01 22:32:29;;;;;;;4.00;3.10;;;6.90;99.90;;;;;;5046680;28;20816;-64
2021/11/01 22:40:34;;;;;;;6.27;3.50;;;6.80;99.90;;;;;;5042448;28;20751;-64
2021/11/01 22:43:06;;;;;;;6.33;4.20;;;6.80;99.90;;;;;;5040479;28;20452;-65